Time;durP1;ratioP1;P1;durP2;ratioP2;P2;SDS_P1;SDS_P2;PMS_P1;PMS_P2;Temp;Humidity;BMP_temperature;BMP_pressure;BME280_temperature;BME280_humidity;BME280_pressure;Samples;Min_cycle;Max_cycle;Signal;HPM_P1;HPM_P2
2021/01/25 00:02:41;;;;;;;5.78;2.45;;;;;;;3.70;42.61;99073.53;5076284;28;20060;-74
2021/01/25 00:05:46;;;;;;;5.25;1.88;;;;;;;3.37;43.86;99065.59;5076468;28;20071;-73
2021/01/25 00:08:50;;;;;;;4.07;2.33;;;;;;;3.27;43.70;99050.41;5076413;28;20059;-75
2021/01/25 00:11:54;;;;;;;3.97;1.80;;;;;;;3.19;45.08;99046.66;5076009;28;20059;-74
2021/01/25 00:15:00;;;;;;;6.07;2.63;;;;;;;3.08;45.66;99031.63;5075669;28;20503;-76
2021/01/25 00:18:04;;;;;;;8.23;3.90;;;;;;;3.03;46.34;99017.88;5074576;28;20047;-76
2021/01/25 00:21:08;;;;;;;6.80;4.38;;;;;;;2.99;47.14;99012.91;5075557;28;20388;-74
2021/01/25 00:24:13;;;;;;;8.85;5.78;;;;;;;2.88;48.67;99000.53;5075712;28;20048;-76
2021/01/25 00:27:17;;;;;;;14.63;7.25;;;;;;;2.70;50.60;99001.94;5075541;28;20063;-76
2021/01/25 00:30:22;;;;;;;9.57;6.93;;;;;;;2.66;51.59;98997.00;5076273;28;20390;-74
2021/01/25 00:33:26;;;;;;;9.18;6.22;;;;;;;2.54;52.60;98990.88;5086809;28;20043;-74
2021/01/25 00:36:30;;;;;;;9.13;6.50;;;;;;;2.37;53.23;98986.84;5093808;28;20047;-76
2021/01/25 00:39:35;;;;;;;10.18;6.80;;;;;;;2.30;53.52;99004.16;5095982;28;20055;-72
2021/01/25 00:42:39;;;;;;;11.88;8.02;;;;;;;2.25;55.24;99010.75;5094801;28;20040;-73
2021/01/25 00:45:43;;;;;;;10.93;7.93;;;;;;;2.21;55.70;99009.28;5074511;28;20410;-75
2021/01/25 00:48:48;;;;;;;9.88;7.15;;;;;;;2.17;56.05;99011.34;5095403;28;20058;-75
2021/01/25 00:51:52;;;;;;;11.85;7.72;;;;;;;2.20;56.49;99010.28;5075588;28;20047;-75
2021/01/25 00:54:58;;;;;;;9.93;7.18;;;;;;;2.20;57.37;99010.28;5075072;28;20526;-73
2021/01/25 00:58:03;;;;;;;14.93;8.07;;;;;;;2.18;58.26;99005.06;5074345;28;20375;-74
2021/01/25 01:01:07;;;;;;;11.82;7.43;;;;;;;2.15;58.54;98999.19;5075105;28;20051;-74
2021/01/25 01:04:12;;;;;;;13.05;8.63;;;;;;;2.02;59.11;98990.47;5080477;28;20056;-76
2021/01/25 01:07:17;;;;;;;15.27;9.82;;;;;;;1.97;59.01;98999.56;5095788;28;20055;-77
2021/01/25 01:10:21;;;;;;;12.20;8.32;;;;;;;1.92;60.53;99011.47;5095120;28;20486;-72
2021/01/25 01:13:25;;;;;;;11.82;7.18;;;;;;;1.82;61.15;99013.97;5075437;28;20502;-75
2021/01/25 01:16:30;;;;;;;11.73;8.15;;;;;;;1.77;62.10;99033.75;5074555;28;20051;-72
2021/01/25 01:19:34;;;;;;;12.82;8.68;;;;;;;1.77;62.75;99013.47;5074768;28;20384;-73
2021/01/25 01:22:40;;;;;;;14.00;8.85;;;;;;;1.77;63.75;98986.16;5093336;28;20051;-73
2021/01/25 01:25:44;;;;;;;14.38;10.13;;;;;;;1.64;64.01;98988.84;5074939;28;20047;-72
2021/01/25 01:28:49;;;;;;;14.13;10.27;;;;;;;1.59;64.78;98993.63;5073969;28;20098;-72
2021/01/25 01:31:53;;;;;;;14.25;9.70;;;;;;;1.62;65.03;98988.13;5074500;28;20052;-72
2021/01/25 01:34:57;;;;;;;14.20;9.70;;;;;;;1.47;65.62;98978.66;5087269;28;20051;-72
2021/01/25 01:38:02;;;;;;;18.25;11.70;;;;;;;1.46;66.11;98978.78;5094454;28;20382;-74
2021/01/25 01:41:06;;;;;;;14.73;9.95;;;;;;;1.45;66.52;98991.16;5094321;28;20054;-72
2021/01/25 01:44:10;;;;;;;16.83;11.50;;;;;;;1.46;67.19;98986.72;5092452;28;20209;-73
2021/01/25 01:47:19;;;;;;;14.10;10.70;;;;;;;1.48;67.66;98980.34;5094578;28;20051;-72
2021/01/25 01:50:24;;;;;;;14.05;9.45;;;;;;;1.50;68.01;98973.16;5075339;28;20401;-72
2021/01/25 01:53:28;;;;;;;16.65;10.80;;;;;;;1.47;68.00;98967.25;5073420;28;20051;-71
2021/01/25 01:56:36;;;;;;;21.73;14.70;;;;;;;1.48;69.97;98951.25;5086397;28;20505;-72
2021/01/25 01:59:40;;;;;;;19.52;13.18;;;;;;;1.45;69.96;98959.44;5094288;28;20493;-73
2021/01/25 02:02:45;;;;;;;15.48;10.60;;;;;;;1.41;69.88;98949.19;5092526;28;20071;-73
2021/01/25 02:05:51;;;;;;;22.63;12.77;;;;;;;1.39;69.35;98956.38;5080978;28;20052;-72
2021/01/25 02:08:58;;;;;;;18.00;10.88;;;;;;;1.41;69.42;98957.94;5074000;28;20498;-72
2021/01/25 02:12:04;;;;;;;15.63;11.88;;;;;;;1.38;69.29;98938.84;5073993;28;20052;-72
2021/01/25 02:15:09;;;;;;;17.15;11.65;;;;;;;1.44;69.70;98949.81;5078464;28;20039;-72
2021/01/25 02:18:13;;;;;;;17.88;11.80;;;;;;;1.52;69.59;98943.97;5084992;28;20403;-72
2021/01/25 02:21:19;;;;;;;10.65;7.90;;;;;;;1.46;68.77;98924.09;5094064;28;20110;-72
2021/01/25 02:24:46;;;;;;;10.93;7.13;;;;;;;1.43;67.44;98950.78;5092499;28;20337;-71
2021/01/25 02:27:51;;;;;;;13.55;8.10;;;;;;;1.46;67.80;98953.19;5076506;28;20407;-72
2021/01/25 02:30:55;;;;;;;11.07;7.95;;;;;;;1.39;67.82;98959.88;5080690;28;20502;-73
2021/01/25 02:34:02;;;;;;;12.98;8.55;;;;;;;1.39;67.93;98973.09;5097044;28;20056;-72
2021/01/25 02:37:07;;;;;;;11.82;8.20;;;;;;;1.36;68.56;98975.94;5075718;28;20068;-72
2021/01/25 02:40:13;;;;;;;10.05;7.18;;;;;;;1.42;68.87;98991.38;5076363;28;20387;-72
2021/01/25 02:43:20;;;;;;;12.50;8.13;;;;;;;1.30;69.69;98981.69;5094342;28;20482;-70
2021/01/25 02:46:25;;;;;;;12.20;8.00;;;;;;;1.25;69.29;98965.31;5091473;28;20051;-74
2021/01/25 02:49:29;;;;;;;10.55;7.65;;;;;;;1.33;69.44;98972.69;5085279;28;20067;-76
2021/01/25 02:52:33;;;;;;;13.35;9.02;;;;;;;1.32;70.00;98971.84;5077540;28;20059;-74
2021/01/25 02:55:38;;;;;;;14.07;9.07;;;;;;;1.39;70.30;98967.78;5088145;28;20044;-71
2021/01/25 02:58:44;;;;;;;13.88;8.85;;;;;;;1.45;70.23;98955.94;5077441;28;20502;-72
2021/01/25 03:01:49;;;;;;;13.18;9.25;;;;;;;1.49;70.37;98941.53;5088213;28;20052;-71
2021/01/25 03:04:54;;;;;;;13.95;9.43;;;;;;;1.51;69.60;98943.09;5077588;28;20499;-72
2021/01/25 03:07:58;;;;;;;16.83;9.65;;;;;;;1.44;69.78;98928.66;5083772;28;20051;-72
2021/01/25 03:11:03;;;;;;;14.15;9.90;;;;;;;1.46;69.08;98926.72;5081458;28;20059;-73
2021/01/25 03:14:11;;;;;;;14.43;9.93;;;;;;;1.53;69.51;98941.19;5077239;28;20044;-72
2021/01/25 03:17:15;;;;;;;12.60;7.95;;;;;;;1.49;69.31;98942.38;5077086;28;20055;-71
2021/01/25 03:20:23;;;;;;;12.00;8.32;;;;;;;1.45;69.13;98943.56;5093384;28;20043;-72
2021/01/25 03:23:27;;;;;;;16.48;8.02;;;;;;;1.40;68.13;98936.94;5097492;28;20047;-72
2021/01/25 03:26:31;;;;;;;12.68;7.72;;;;;;;1.45;67.63;98938.28;5094122;28;20051;-72
2021/01/25 03:29:35;;;;;;;12.32;7.47;;;;;;;1.33;67.96;98928.63;5091859;28;20051;-73
2021/01/25 03:32:40;;;;;;;9.00;6.40;;;;;;;1.22;68.19;98924.09;5076936;28;20051;-72
2021/01/25 03:35:44;;;;;;;8.90;6.32;;;;;;;1.15;68.39;98929.94;5076695;28;20052;-71
2021/01/25 03:38:49;;;;;;;8.90;5.15;;;;;;;1.12;68.46;98935.44;5076958;28;20490;-71
2021/01/25 03:41:53;;;;;;;7.75;5.60;;;;;;;1.18;68.30;98938.50;5076694;28;20056;-72
2021/01/25 03:44:57;;;;;;;8.07;5.60;;;;;;;1.14;68.45;98938.81;5076585;28;20052;-70
2021/01/25 03:48:03;;;;;;;8.10;4.90;;;;;;;1.10;68.01;98937.34;5076545;28;20059;-73
2021/01/25 03:51:08;;;;;;;7.00;4.47;;;;;;;1.08;67.95;98931.34;5087615;28;20048;-73
2021/01/25 03:54:12;;;;;;;6.22;3.97;;;;;;;1.09;67.39;98933.84;5083295;28;20071;-73
2021/01/25 03:57:17;;;;;;;6.28;3.70;;;;;;;1.07;67.13;98917.28;5096197;28;20141;-73
2021/01/25 04:00:22;;;;;;;7.30;4.45;;;;;;;1.15;66.05;98911.44;5095480;28;20063;-72
2021/01/25 04:03:26;;;;;;;6.38;4.30;;;;;;;1.23;65.11;98909.91;5078059;28;20510;-72
2021/01/25 04:06:31;;;;;;;7.43;4.32;;;;;;;1.27;65.79;98918.47;5077052;28;20051;-72
2021/01/25 04:09:35;;;;;;;5.63;4.10;;;;;;;1.29;66.33;98911.28;5090591;28;20514;-72
2021/01/25 04:12:39;;;;;;;6.88;3.72;;;;;;;1.24;66.60;98897.56;5079969;28;20055;-72
2021/01/25 04:15:44;;;;;;;7.57;4.13;;;;;;;1.26;67.69;98908.84;5096292;28;20387;-72
2021/01/25 04:18:48;;;;;;;6.60;4.40;;;;;;;1.21;67.86;98919.75;5091763;28;20047;-72
2021/01/25 04:21:53;;;;;;;6.78;4.45;;;;;;;1.19;68.20;98928.75;5086205;28;20055;-70
2021/01/25 04:24:57;;;;;;;10.00;6.00;;;;;;;1.11;67.93;98917.91;5088408;28;20506;-72
2021/01/25 04:28:02;;;;;;;12.00;6.43;;;;;;;1.10;67.82;98918.84;5083887;28;20051;-76
2021/01/25 04:31:11;;;;;;;10.93;5.00;;;;;;;1.07;67.93;98913.78;5086886;28;20056;-73
2021/01/25 04:34:15;;;;;;;8.80;4.38;;;;;;;1.05;68.09;98902.50;5075343;28;20060;-77
2021/01/25 04:37:20;;;;;;;8.27;4.88;;;;;;;1.15;67.62;98901.72;5085014;28;20045;-72
2021/01/25 04:40:24;;;;;;;7.50;5.20;;;;;;;1.22;67.58;98905.59;5095546;28;20071;-73
2021/01/25 04:43:28;;;;;;;8.13;4.88;;;;;;;1.30;68.13;98919.09;5095392;28;20379;-72
2021/01/25 04:46:34;;;;;;;8.75;4.18;;;;;;;1.32;68.26;98903.13;5095573;28;20498;-72
2021/01/25 04:49:42;;;;;;;6.10;3.70;;;;;;;1.29;68.61;98895.41;5091923;28;20043;-71
2021/01/25 04:52:47;;;;;;;7.32;3.42;;;;;;;1.18;69.38;98905.94;5089833;28;20051;-72
2021/01/25 04:55:53;;;;;;;5.90;3.58;;;;;;;1.14;68.76;98904.47;5082693;28;20043;-72
2021/01/25 04:58:57;;;;;;;8.20;4.20;;;;;;;1.13;68.77;98908.91;5079604;28;20059;-72
2021/01/25 05:02:02;;;;;;;6.78;3.40;;;;;;;1.19;69.08;98911.09;5095066;28;20051;-72
2021/01/25 05:05:08;;;;;;;7.68;3.58;;;;;;;1.25;69.84;98901.88;5090217;28;20052;-73
2021/01/25 05:08:12;;;;;;;12.52;4.53;;;;;;;1.20;69.64;98896.09;5074850;28;20370;-73
2021/01/25 05:11:18;;;;;;;6.82;3.72;;;;;;;1.26;69.54;98914.13;5080963;28;20494;-74
2021/01/25 05:14:22;;;;;;;7.82;3.42;;;;;;;1.33;69.13;98911.91;5091558;28;20078;-72
2021/01/25 05:17:26;;;;;;;5.68;3.35;;;;;;;1.24;70.42;98906.31;5076488;28;20498;-72
2021/01/25 05:20:32;;;;;;;10.18;4.38;;;;;;;1.18;71.03;98900.66;5095080;28;20161;-72
2021/01/25 05:23:40;;;;;;;6.82;3.65;;;;;;;1.24;71.21;98929.25;5094679;28;20047;-72
2021/01/25 05:26:57;;;;;;;9.93;3.63;;;;;;;1.22;72.09;98916.16;5093695;28;20047;-72
2021/01/25 05:30:11;;;;;;;8.30;3.95;;;;;;;1.15;73.16;98919.38;5083289;28;20047;-72
2021/01/25 05:33:25;;;;;;;10.65;4.47;;;;;;;1.02;74.05;98916.75;5083258;28;20074;-72
2021/01/25 05:36:30;;;;;;;6.63;4.15;;;;;;;0.93;74.83;98917.44;5088104;28;20047;-73
2021/01/25 05:39:35;;;;;;;13.43;4.43;;;;;;;0.91;74.84;98911.41;5094333;28;20039;-73
2021/01/25 05:42:41;;;;;;;7.22;4.82;;;;;;;0.89;75.13;98913.31;5094132;28;20047;-71
2021/01/25 05:45:46;;;;;;;10.23;4.70;;;;;;;0.83;75.28;98926.97;5094185;28;20391;-71
2021/01/25 05:48:58;;;;;;;9.68;5.15;;;;;;;0.83;75.02;98920.84;5094207;28;20051;-71
2021/01/25 05:52:04;;;;;;;8.98;5.07;;;;;;;0.84;74.01;98939.19;5094152;28;20379;-72
2021/01/25 05:55:09;;;;;;;11.82;4.78;;;;;;;0.83;73.59;98918.19;5087952;28;20043;-73
2021/01/25 05:58:13;;;;;;;16.65;7.80;;;;;;;0.84;73.63;98910.16;5093511;28;20055;-74
2021/01/25 06:01:21;;;;;;;25.20;11.90;;;;;;;0.84;72.43;98912.78;5073712;28;20051;-71
2021/01/25 06:04:26;;;;;;;18.63;9.18;;;;;;;0.87;72.74;98917.84;5086185;28;20051;-71
2021/01/25 06:07:32;;;;;;;29.23;16.30;;;;;;;0.89;72.99;98912.50;5093546;28;20047;-70
2021/01/25 06:11:03;;;;;;;40.17;22.23;;;;;;;0.93;73.24;98924.50;5093812;28;20059;-72
2021/01/25 06:14:23;;;;;;;11.40;6.18;;;;;;;0.85;73.75;98913.63;5094051;28;20058;-71
2021/01/25 06:17:30;;;;;;;11.75;5.43;;;;;;;0.74;73.44;98919.66;5093110;28;20051;-71
2021/01/25 06:20:36;;;;;;;10.77;4.85;;;;;;;0.79;73.44;98935.22;5080465;28;20498;-71
2021/01/25 06:23:42;;;;;;;8.70;5.40;;;;;;;0.77;72.36;98915.97;5073813;28;20380;-71
2021/01/25 06:26:49;;;;;;;7.97;5.25;;;;;;;0.75;72.28;98916.09;5077115;28;20388;-72
2021/01/25 06:29:54;;;;;;;7.60;5.45;;;;;;;0.80;72.96;98910.47;5093881;28;20071;-72
2021/01/25 06:32:59;;;;;;;8.68;5.68;;;;;;;0.77;74.15;98908.91;5073648;28;20055;-76
2021/01/25 06:36:07;;;;;;;11.70;5.70;;;;;;;0.79;73.70;98929.94;5079305;28;20055;-75
2021/01/25 06:39:11;;;;;;;15.50;9.52;;;;;;;0.85;74.15;98930.34;5092227;28;20051;-71
2021/01/25 06:42:16;;;;;;;19.73;9.73;;;;;;;0.85;74.68;98929.47;5077085;28;20047;-73
2021/01/25 06:45:25;;;;;;;15.55;8.07;;;;;;;0.77;74.18;98934.47;5075720;28;20067;-74
2021/01/25 06:48:34;;;;;;;14.38;8.00;;;;;;;0.78;73.81;98939.66;5073196;28;20055;-71
2021/01/25 06:51:43;;;;;;;13.02;8.20;;;;;;;0.74;74.03;98922.31;5073133;28;20043;-72
2021/01/25 06:54:47;;;;;;;14.77;8.88;;;;;;;0.81;74.17;98942.06;5073230;28;20384;-71
2021/01/25 06:57:51;;;;;;;22.88;8.98;;;;;;;0.71;75.25;98940.19;5083780;28;20060;-70
2021/01/25 07:00:57;;;;;;;19.77;9.18;;;;;;;0.70;74.87;98947.25;5068793;28;20055;-71
2021/01/25 07:04:01;;;;;;;21.85;10.02;;;;;;;0.60;75.44;98962.91;5083321;28;20046;-71
2021/01/25 07:07:07;;;;;;;20.08;10.23;;;;;;;0.58;75.31;98964.81;5092509;28;20506;-71
2021/01/25 07:10:15;;;;;;;16.40;9.23;;;;;;;0.53;75.46;98963.44;5084971;28;20039;-71
2021/01/25 07:13:22;;;;;;;16.67;8.57;;;;;;;0.68;75.28;98977.34;5072101;28;20052;-73
2021/01/25 07:16:27;;;;;;;19.55;9.10;;;;;;;0.75;74.63;98975.97;5071853;28;20065;-72
2021/01/25 07:19:31;;;;;;;12.48;8.55;;;;;;;0.81;75.05;98971.13;5084871;28;20071;-77
2021/01/25 07:22:36;;;;;;;15.07;7.53;;;;;;;0.83;74.39;98981.56;5073127;28;20106;-76
2021/01/25 07:25:44;;;;;;;17.55;8.00;;;;;;;1.01;74.15;98978.47;5091177;28;20070;-77
2021/01/25 07:28:48;;;;;;;15.75;8.60;;;;;;;1.13;74.00;98971.47;5090141;28;20059;-76
2021/01/25 07:31:54;;;;;;;25.05;7.60;;;;;;;1.33;75.20;98974.38;5084214;28;20055;-76
2021/01/25 07:34:58;;;;;;;13.15;7.45;;;;;;;1.48;76.23;98987.44;5095721;28;20051;-76
2021/01/25 07:38:03;;;;;;;13.68;6.78;;;;;;;1.65;74.83;98987.91;5095766;28;20066;-76
2021/01/25 07:41:07;;;;;;;14.60;6.13;;;;;;;1.75;72.53;98988.91;5095768;28;20055;-77
2021/01/25 07:44:13;;;;;;;9.38;5.93;;;;;;;1.89;71.10;98994.03;5090830;28;20052;-75
2021/01/25 07:47:20;;;;;;;15.48;5.72;;;;;;;2.01;70.49;99005.50;5075224;28;20067;-74
2021/01/25 07:50:25;;;;;;;8.50;5.18;;;;;;;2.11;70.25;99001.22;5074099;28;20052;-74
2021/01/25 07:53:35;;;;;;;9.60;6.05;;;;;;;2.21;69.09;99004.00;5075418;28;20112;-74
2021/01/25 07:56:40;;;;;;;8.30;5.45;;;;;;;2.31;69.10;99010.28;5081058;28;20403;-74
2021/01/25 07:59:44;;;;;;;15.68;7.85;;;;;;;2.42;69.06;99010.34;5089203;28;20067;-76
2021/01/25 08:03:23;;;;;;;16.00;7.72;;;;;;;2.53;68.28;99019.16;5094881;28;20055;-75
2021/01/25 08:06:35;;;;;;;12.43;7.60;;;;;;;2.60;68.55;99022.16;5093817;28;20118;-72
2021/01/25 08:09:40;;;;;;;14.15;9.68;;;;;;;2.56;68.49;99031.31;5080706;28;20047;-74
2021/01/25 08:12:46;;;;;;;16.05;9.77;;;;;;;2.40;68.53;99044.84;5095363;28;20055;-77
2021/01/25 08:16:02;;;;;;;15.07;9.15;;;;;;;2.25;69.07;99046.00;5094344;28;20040;-73
2021/01/25 08:19:35;;;;;;;12.23;7.63;;;;;;;2.30;69.27;99045.66;5076827;28;20068;-74
2021/01/25 08:22:52;;;;;;;11.07;6.85;;;;;;;2.59;68.97;99054.91;5095164;28;20047;-75
2021/01/25 08:25:58;;;;;;;62.88;36.38;;;;;;;5.37;63.05;99039.81;5094344;28;20398;-75
2021/01/25 08:29:08;;;;;;;55.90;31.00;;;;;;;9.22;49.60;99031.16;5094367;28;20403;-74
2021/01/25 08:32:22;;;;;;;24.70;15.20;;;;;;;11.30;42.74;99036.25;5091120;28;20127;-75
2021/01/25 08:35:58;;;;;;;11.35;7.85;;;;;;;11.62;40.57;99045.06;5091757;28;20040;-72
2021/01/25 08:39:16;;;;;;;13.02;5.95;;;;;;;10.31;43.25;99067.81;5095044;28;20059;-77
2021/01/25 08:42:40;;;;;;;9.15;5.97;;;;;;;9.93;44.71;99065.63;5094516;28;20055;-75
2021/01/25 08:45:45;;;;;;;12.73;5.53;;;;;;;12.24;40.42;99064.84;5071033;28;20407;-75
2021/01/25 08:48:50;;;;;;;9.45;5.40;;;;;;;15.09;34.71;99057.75;5094551;28;20051;-75
2021/01/25 08:52:04;;;;;;;14.65;7.40;;;;;;;16.94;31.03;99050.38;5082051;28;20150;-73
2021/01/25 08:55:08;;;;;;;;;;;;;;;17.62;29.93;99054.59;5082233;28;20047;-72
2021/01/25 08:58:16;;;;;;;13.13;7.45;;;;;;;19.17;27.45;99069.56;5081543;28;19920;-73
2021/01/25 09:01:29;;;;;;;9.68;7.25;;;;;;;19.53;26.64;99068.88;5081858;28;20043;-73
2021/01/25 09:04:33;;;;;;;12.82;7.50;;;;;;;19.55;26.92;99069.50;5081826;28;20043;-72
2021/01/25 09:07:37;;;;;;;13.35;8.13;;;;;;;20.40;26.06;99062.28;5081675;28;20043;-71
2021/01/25 09:10:41;;;;;;;10.38;7.43;;;;;;;19.72;26.47;99067.88;5081752;28;20055;-74
2021/01/25 09:13:46;;;;;;;10.10;8.23;;;;;;;19.71;27.17;99077.09;5081561;28;20051;-73
2021/01/25 09:16:51;;;;;;;14.38;8.85;;;;;;;20.54;26.06;99085.63;5081251;28;20067;-71
2021/01/25 09:19:56;;;;;;;16.17;9.50;;;;;;;20.29;26.00;99079.44;5069936;28;20059;-73
2021/01/25 09:23:02;;;;;;;12.20;8.70;;;;;;;20.86;26.09;99087.06;5081659;28;20043;-74
2021/01/25 09:26:06;;;;;;;12.48;8.43;;;;;;;21.55;24.63;99080.97;5069808;28;20043;-72
2021/01/25 09:29:14;;;;;;;12.63;8.55;;;;;;;20.76;25.91;99087.59;5080412;28;20059;-72
2021/01/25 09:32:19;;;;;;;13.13;9.38;;;;;;;20.85;25.78;99092.75;5061252;28;20063;-74
2021/01/25 09:35:26;;;;;;;10.07;9.02;;;;;;;20.90;26.12;99090.16;5061073;28;20111;-74
2021/01/25 09:38:30;;;;;;;11.82;9.52;;;;;;;20.97;26.41;99101.78;5060576;28;20046;-74
2021/01/25 09:41:36;;;;;;;13.35;10.27;;;;;;;19.21;27.92;99113.47;5061312;28;20511;-73
2021/01/25 09:44:40;;;;;;;10.90;9.80;;;;;;;16.91;31.67;99118.59;5061373;28;20037;-75
2021/01/25 09:47:44;;;;;;;12.18;10.50;;;;;;;15.51;33.97;99119.06;5061243;28;20055;-71
2021/01/25 09:50:51;;;;;;;14.80;11.52;;;;;;;13.99;37.17;99120.25;5049788;28;20044;-74
2021/01/25 09:53:56;;;;;;;13.82;11.38;;;;;;;13.24;39.11;99131.13;5061277;28;20063;-74
2021/01/25 09:57:00;;;;;;;13.95;12.45;;;;;;;12.46;40.96;99132.31;5060702;28;20044;-76
2021/01/25 10:00:07;;;;;;;15.23;12.73;;;;;;;12.05;42.51;99137.03;5060641;28;20051;-75
2021/01/25 10:03:11;;;;;;;15.40;12.48;;;;;;;11.40;44.25;99149.75;5060713;28;20047;-76
2021/01/25 10:06:17;;;;;;;16.25;11.68;;;;;;;11.04;45.07;99146.56;5049600;28;20059;-73
2021/01/25 10:09:22;;;;;;;14.35;11.63;;;;;;;10.89;45.30;99148.22;5060138;28;20048;-76
2021/01/25 10:12:27;;;;;;;15.82;11.82;;;;;;;10.58;45.47;99153.38;5049130;28;20407;-76
2021/01/25 10:15:33;;;;;;;20.60;13.07;;;;;;;10.24;46.29;99168.69;5060650;28;20047;-75
2021/01/25 10:18:37;;;;;;;16.58;12.82;;;;;;;10.15;46.05;99172.31;5060567;28;20057;-76
2021/01/25 10:21:42;;;;;;;15.32;12.50;;;;;;;9.35;47.31;99173.50;5060577;28;20043;-76
2021/01/25 10:24:47;;;;;;;17.70;13.45;;;;;;;8.90;49.64;99164.72;5060820;28;20051;-76
2021/01/25 10:27:52;;;;;;;21.88;13.93;;;;;;;8.61;51.58;99172.13;5049082;28;20064;-74
2021/01/25 10:30:56;;;;;;;18.27;13.85;;;;;;;8.04;52.98;99181.28;5048492;28;20072;-75
2021/01/25 10:34:01;;;;;;;18.40;13.90;;;;;;;7.71;54.51;99194.19;5075135;28;20047;-74
2021/01/25 10:37:06;;;;;;;19.20;14.10;;;;;;;7.59;54.08;99198.00;5080241;28;20051;-72
2021/01/25 10:40:12;;;;;;;22.05;13.85;;;;;;;7.62;54.02;99195.06;5068757;28;20055;-73
2021/01/25 10:43:16;;;;;;;14.45;12.80;;;;;;;7.31;53.29;99192.72;5068650;28;20059;-72
2021/01/25 10:46:20;;;;;;;15.30;12.60;;;;;;;6.98;54.65;99192.19;5068865;28;20537;-74
2021/01/25 10:49:24;;;;;;;18.60;13.88;;;;;;;7.26;54.85;99190.47;5080319;28;20071;-74
2021/01/25 10:52:29;;;;;;;18.23;13.52;;;;;;;7.56;54.89;99200.13;5092804;28;20055;-73
2021/01/25 10:55:34;;;;;;;22.00;12.85;;;;;;;7.80;54.80;99203.16;5080340;28;20051;-74
2021/01/25 10:58:38;;;;;;;16.55;13.18;;;;;;;7.88;55.28;99204.09;5068862;28;20047;-75
2021/01/25 11:01:42;;;;;;;19.65;13.18;;;;;;;7.63;55.92;99203.88;5068234;28;20074;-74
2021/01/25 11:04:47;;;;;;;17.98;14.10;;;;;;;7.64;56.05;99201.09;5068671;28;20510;-74
2021/01/25 11:07:51;;;;;;;16.13;12.63;;;;;;;7.65;57.73;99207.28;5069928;28;20051;-76
2021/01/25 11:10:55;;;;;;;17.60;12.77;;;;;;;7.68;56.99;99212.31;5071934;28;20102;-73
2021/01/25 11:14:00;;;;;;;15.40;12.30;;;;;;;7.82;56.64;99206.53;5072347;28;20043;-77
2021/01/25 11:17:04;;;;;;;15.48;11.82;;;;;;;7.86;56.31;99208.75;5072089;28;20043;-75
2021/01/25 11:20:09;;;;;;;14.20;11.88;;;;;;;7.89;56.53;99212.97;5072151;28;20059;-74
2021/01/25 11:23:13;;;;;;;14.02;12.38;;;;;;;7.86;56.33;99210.59;5095049;28;20044;-74
2021/01/25 11:26:19;;;;;;;16.75;12.90;;;;;;;7.93;55.88;99210.84;5095562;28;20051;-74
2021/01/25 11:29:28;;;;;;;16.00;12.15;;;;;;;7.95;56.25;99206.22;5071912;28;20047;-75
2021/01/25 11:32:33;;;;;;;14.57;12.27;;;;;;;8.07;56.05;99208.56;5071582;28;20051;-73
2021/01/25 11:35:37;;;;;;;21.00;16.50;;;;;;;8.29;55.18;99202.00;5072021;28;20074;-74
2021/01/25 11:38:42;;;;;;;17.38;11.65;;;;;;;8.37;55.11;99202.09;5071888;28;20059;-75
2021/01/25 11:41:46;;;;;;;13.48;10.23;;;;;;;8.37;54.34;99208.28;5071672;28;20051;-74
2021/01/25 11:44:51;;;;;;;12.90;10.27;;;;;;;8.64;53.04;99201.25;5095916;28;20093;-73
2021/01/25 11:47:55;;;;;;;11.82;9.48;;;;;;;8.81;52.56;99206.63;5095834;28;20055;-77
2021/01/25 11:50:59;;;;;;;13.20;9.77;;;;;;;8.90;53.04;99204.88;5095700;28;20051;-73
2021/01/25 11:54:04;;;;;;;16.05;10.20;;;;;;;8.90;53.01;99204.88;5094971;28;20051;-73
2021/01/25 11:57:08;;;;;;;12.93;10.10;;;;;;;8.70;53.90;99196.13;5095466;28;20051;-75
2021/01/25 12:00:13;;;;;;;15.90;10.15;;;;;;;8.41;56.65;99199.00;5094762;28;20514;-74
2021/01/25 12:03:18;;;;;;;13.07;10.15;;;;;;;8.31;56.60;99202.69;5094771;28;20403;-78
2021/01/25 12:06:22;;;;;;;11.63;9.80;;;;;;;8.07;57.08;99205.88;5094440;28;20415;-72
2021/01/25 12:09:27;;;;;;;13.57;10.38;;;;;;;7.84;57.78;99192.03;5095095;28;20051;-73
2021/01/25 12:12:32;;;;;;;12.85;10.65;;;;;;;7.59;58.93;99191.81;5094971;28;20051;-74
2021/01/25 12:15:36;;;;;;;16.38;11.68;;;;;;;7.45;60.55;99198.47;5095114;28;20506;-74
2021/01/25 12:18:45;;;;;;;12.80;10.50;;;;;;;7.47;61.10;99201.84;5094954;28;20055;-73
2021/01/25 12:21:49;;;;;;;18.55;10.93;;;;;;;7.48;61.22;99197.34;5094944;28;20407;-73
2021/01/25 12:24:54;;;;;;;14.13;10.80;;;;;;;7.56;61.43;99195.63;5092065;28;20047;-71
2021/01/25 12:27:58;;;;;;;16.10;12.65;;;;;;;7.52;61.92;99191.56;5092903;28;20059;-71
2021/01/25 12:31:05;;;;;;;17.95;12.60;;;;;;;7.57;61.72;99185.78;5093243;28;20513;-71
2021/01/25 12:34:10;;;;;;;17.38;13.55;;;;;;;7.67;61.65;99182.13;5081693;28;20047;-73
2021/01/25 12:37:14;;;;;;;21.20;13.15;;;;;;;7.55;61.22;99180.59;5080099;28;20165;-73
2021/01/25 12:40:19;;;;;;;19.98;13.05;;;;;;;7.65;60.96;99191.25;5092608;28;20043;-73
2021/01/25 12:43:24;;;;;;;21.50;12.68;;;;;;;7.79;60.84;99194.31;5072399;28;20048;-72
2021/01/25 12:46:34;;;;;;;16.08;12.60;;;;;;;7.74;60.77;99183.22;5074913;28;20403;-71
2021/01/25 12:49:38;;;;;;;17.45;12.65;;;;;;;7.79;60.46;99180.94;5075450;28;20380;-71
2021/01/25 12:52:43;;;;;;;18.42;13.38;;;;;;;7.75;60.81;99176.88;5094827;28;20047;-70
2021/01/25 12:55:47;;;;;;;16.25;12.15;;;;;;;7.57;60.00;99177.78;5094116;28;20039;-71
2021/01/25 12:58:53;;;;;;;15.30;12.10;;;;;;;7.52;60.12;99190.72;5094461;28;20059;-70
2021/01/25 13:01:58;;;;;;;16.55;12.57;;;;;;;7.40;60.34;99191.88;5094079;28;20399;-72
2021/01/25 13:05:03;;;;;;;14.95;12.38;;;;;;;7.22;61.15;99189.94;5094198;28;20174;-75
2021/01/25 13:08:08;;;;;;;16.80;11.73;;;;;;;7.21;60.64;99182.88;5091472;28;20051;-73
2021/01/25 13:11:12;;;;;;;16.98;12.35;;;;;;;7.12;59.87;99183.75;5085519;28;20051;-75
2021/01/25 13:14:17;;;;;;;14.00;10.90;;;;;;;7.11;60.00;99182.06;5072770;28;20054;-79
2021/01/25 13:17:21;;;;;;;15.02;11.00;;;;;;;7.09;59.64;99191.19;5084154;28;20402;-76
2021/01/25 13:20:28;;;;;;;12.98;10.55;;;;;;;6.99;59.70;99198.34;5094270;28;20059;-77
2021/01/25 13:23:33;;;;;;;15.27;9.73;;;;;;;6.97;60.16;99201.16;5093400;28;20059;-76
2021/01/25 13:26:37;;;;;;;12.25;9.85;;;;;;;7.01;59.72;99191.88;5093007;28;20047;-79
2021/01/25 13:29:43;;;;;;;13.25;11.30;;;;;;;6.88;61.42;99196.69;5092015;28;20052;-73
2021/01/25 13:32:48;;;;;;;14.50;10.90;;;;;;;6.91;61.92;99195.56;5089907;28;20047;-78
2021/01/25 13:35:52;;;;;;;12.85;9.55;;;;;;;6.88;61.13;99196.69;5079362;28;20510;-78
2021/01/25 13:38:56;;;;;;;11.68;8.38;;;;;;;6.93;60.80;99199.75;5073875;28;20047;-75
2021/01/25 13:42:02;;;;;;;11.82;9.13;;;;;;;6.97;60.92;99195.81;5074159;28;20055;-73
2021/01/25 13:45:10;;;;;;;11.98;9.50;;;;;;;6.95;61.13;99195.13;5093866;28;20047;-75
2021/01/25 13:48:15;;;;;;;11.63;9.15;;;;;;;6.98;60.79;99200.19;5093569;28;20074;-76
2021/01/25 13:51:20;;;;;;;13.18;8.88;;;;;;;6.95;60.83;99210.28;5079780;28;20067;-72
2021/01/25 13:54:26;;;;;;;13.10;8.68;;;;;;;6.96;61.51;99217.31;5076762;28;20055;-73
2021/01/25 13:57:32;;;;;;;16.67;9.45;;;;;;;6.95;60.99;99215.63;5072783;28;20494;-73
2021/01/25 14:00:37;;;;;;;10.13;8.20;;;;;;;7.00;61.42;99216.91;5084161;28;20047;-73
2021/01/25 14:03:41;;;;;;;11.93;8.90;;;;;;;7.02;61.80;99228.25;5074748;28;20052;-75
2021/01/25 14:06:45;;;;;;;11.73;8.80;;;;;;;7.06;62.05;99224.31;5091344;28;20506;-78
2021/01/25 14:09:50;;;;;;;12.60;8.98;;;;;;;7.07;61.39;99228.69;5090879;28;20059;-76
2021/01/25 14:12:54;;;;;;;10.70;8.60;;;;;;;7.05;61.55;99229.81;5093248;28;20043;-76
2021/01/25 14:15:59;;;;;;;11.80;8.60;;;;;;;6.95;61.77;99227.13;5093374;28;20063;-72
2021/01/25 14:19:03;;;;;;;11.98;8.77;;;;;;;6.88;61.72;99228.69;5072954;28;20051;-76
2021/01/25 14:22:09;;;;;;;10.35;8.02;;;;;;;6.93;61.94;99226.44;5073058;28;20047;-73
2021/01/25 14:25:16;;;;;;;12.57;7.70;;;;;;;7.00;61.57;99232.91;5072248;28;20044;-77
2021/01/25 14:28:21;;;;;;;11.68;7.68;;;;;;;7.05;61.29;99236.00;5086028;28;20402;-80
2021/01/25 14:31:27;;;;;;;11.18;8.02;;;;;;;7.07;61.46;99239.34;5080955;28;20047;-78
2021/01/25 14:34:31;;;;;;;12.85;7.72;;;;;;;7.13;61.75;99241.44;5073155;28;20051;-80